Main page
METAR-TAF:

METAR-TAF

Airports :

Václav Havel Airport Prague

Prague, Czech Republic

latitude: 50-06N, longitude: 014-15E, elevation: 365 m

Current weather observation

The report was made 28 minutes ago, at 16:00 UTC
Wind 8 kt from the Southwest, varying between South and West
Temperature 27°C
Humidity 34%
Pressure 1014 hPa
Visibility 10 km or more
no clouds below 1500 m and no cumulonimbus

METAR: LKPR 141600Z 22008KT 180V260 CAVOK 27/10 Q1014 NOSIG

Time: 18:28 (16:28 UTC)

Forecast

The report was made 2 hours and 28 minutes ago, at 14:00 UTC
Forecast valid from 14 at 15 UTC to 15 at 21 UTC
Wind 5 kt from the South/Southwest
Visibility 10 km or more
no clouds below 1500 m and no cumulonimbus
Becoming
from 14 at 15 UTC to 14 at 17 UTC
Wind 6 kt from the West
Becoming
from 15 at 00 UTC to 15 at 02 UTC
Wind 3 kt from the South/Southeast

TAF: LKPR 141400Z 1415/1521 21005KT CAVOK BECMG 1415/1417 27006KT BECMG 1500/1502 16003KT

Weather observations and forecasts of more than 4000 airports (METAR and TAF reports).

The available stations are represented by yellow and red dots on the map.

Hover mouse over dot to see the name of the station.

Then click to see weather observations and forecasts.

To change the map : click on the green buttons with a black cross to zoom in, on the green button with a dash to zoom out, or on the green arrows for adjacent maps.


METAR-TAF: